Time;durP1;ratioP1;P1;durP2;ratioP2;P2;SDS_P1;SDS_P2;PMS_P1;PMS_P2;Temp;Humidity;BMP_temperature;BMP_pressure;BME280_temperature;BME280_humidity;BME280_pressure;Samples;Min_cycle;Max_cycle;Signal;HPM_P1;HPM_P2
2022/01/21 00:01:47;;;;;;;12.27;9.43;;;;;;;0.64;85.54;101021.97;4977645;28;20647;-79
2022/01/21 00:04:13;;;;;;;12.83;9.97;;;;;;;0.61;85.49;101024.56;4977644;28;20232;-79
2022/01/21 00:06:38;;;;;;;13.10;9.80;;;;;;;0.60;85.56;101018.53;4978411;28;21105;-79
2022/01/21 00:09:04;;;;;;;13.23;8.93;;;;;;;0.60;85.42;101018.53;4978257;28;20638;-79
2022/01/21 00:11:31;;;;;;;9.50;8.60;;;;;;;0.60;85.41;101012.53;4975413;28;20212;-79
2022/01/21 00:13:57;;;;;;;11.75;8.82;;;;;;;0.59;85.43;101016.81;4965551;28;20196;-79
2022/01/21 00:16:25;;;;;;;14.30;7.55;;;;;;;0.58;85.47;101020.25;4977207;28;20191;-80
2022/01/21 00:18:58;;;;;;;12.40;6.90;;;;;;;0.57;85.44;101015.97;4979841;28;20226;-80
2022/01/21 00:32:22;;;;;;;12.95;7.65;;;;;;;0.40;85.75;101020.25;4977636;28;20210;-80
2022/01/21 00:34:48;;;;;;;10.63;6.95;;;;;;;0.42;85.50;101021.13;4975662;28;20224;-79
2022/01/21 00:37:13;;;;;;;6.97;6.27;;;;;;;0.44;85.72;101011.66;4976714;28;20218;-79
2022/01/21 00:39:40;;;;;;;9.60;6.88;;;;;;;0.46;85.34;101009.03;4975535;28;20212;-79
2022/01/21 00:44:38;;;;;;;9.75;6.63;;;;;;;0.46;85.41;101004.75;4977310;28;20250;-79
2022/01/21 00:47:04;;;;;;;10.30;6.53;;;;;;;0.48;85.58;101003.03;4976147;28;20211;-79
2022/01/21 00:49:29;;;;;;;9.63;7.10;;;;;;;0.49;85.37;101015.09;4959493;28;20200;-79
2022/01/21 00:51:55;;;;;;;8.40;6.60;;;;;;;0.47;85.37;101022.00;4975014;28;20263;-79
2022/01/21 00:54:20;;;;;;;8.30;6.50;;;;;;;0.46;85.25;101024.56;4979109;28;20712;-79
2022/01/21 00:56:46;;;;;;;9.87;7.17;;;;;;;0.43;85.60;101017.66;4962724;28;20657;-79
2022/01/21 00:59:11;;;;;;;11.20;7.63;;;;;;;0.41;85.31;101019.41;4980340;28;20217;-79
2022/01/21 01:01:37;;;;;;;8.70;6.30;;;;;;;0.43;85.38;101026.31;4977300;28;20200;-79
2022/01/21 01:04:04;;;;;;;7.70;7.00;;;;;;;0.44;85.18;101019.41;4979753;28;20200;-79
2022/01/21 01:06:31;;;;;;;7.80;6.10;;;;;;;0.41;85.55;101012.50;4977362;28;20719;-78
2022/01/21 01:08:56;;;;;;;8.13;6.47;;;;;;;0.40;85.24;101017.66;4977797;28;20204;-78
2022/01/21 01:11:47;;;;;;;8.10;7.30;;;;;;;0.38;85.40;101011.66;4977111;28;20617;-78
2022/01/21 01:19:57;;;;;;;8.63;6.13;;;;;;;0.34;85.57;101005.59;4978049;28;20211;-79
2022/01/21 01:27:50;;;;;;;14.10;7.95;;;;;;;0.26;85.30;101011.63;4985137;28;20215;-78
2022/01/21 01:30:18;;;;;;;10.20;7.43;;;;;;;0.20;85.29;101015.06;4981500;28;20208;-78
2022/01/21 01:32:46;;;;;;;14.60;9.77;;;;;;;0.26;85.72;101017.66;4982326;28;20494;-78
2022/01/21 01:35:14;;;;;;;15.05;9.30;;;;;;;0.20;85.69;101015.94;4983381;28;20577;-77
2022/01/21 01:40:23;;;;;;;12.60;9.45;;;;;;;0.13;85.80;101011.59;4981116;28;20823;-78
2022/01/21 01:50:46;;;;;;;13.63;8.05;;;;;;;0.14;85.98;101023.69;4982687;28;20473;-78
2022/01/21 01:53:12;;;;;;;8.25;5.47;;;;;;;0.16;85.87;101021.97;4972363;28;20205;-77
2022/01/21 01:55:37;;;;;;;8.27;5.80;;;;;;;0.18;85.83;101019.38;4965576;28;21088;-77
2022/01/21 01:58:03;;;;;;;6.80;5.33;;;;;;;0.15;85.47;101025.41;4971986;28;20195;-77
2022/01/21 02:00:29;;;;;;;12.63;6.10;;;;;;;0.14;85.76;101028.00;4982222;28;20200;-78
2022/01/21 02:02:54;;;;;;;9.43;5.33;;;;;;;0.15;85.87;101027.97;4985068;28;20290;-78
2022/01/21 02:05:20;;;;;;;8.90;6.73;;;;;;;0.20;85.95;101028.00;4977191;28;20494;-77
2022/01/21 02:07:45;;;;;;;8.40;5.83;;;;;;;0.24;85.79;101034.88;4991317;28;20669;-77
2022/01/21 02:10:11;;;;;;;7.10;5.70;;;;;;;0.27;85.50;101034.91;4973534;28;20254;-77
2022/01/21 02:12:40;;;;;;;7.03;6.20;;;;;;;0.30;85.62;101034.00;4987417;28;20226;-77
2022/01/21 02:15:05;;;;;;;6.20;5.60;;;;;;;0.28;85.42;101040.94;4984639;28;20487;-77
2022/01/21 02:22:48;;;;;;;10.10;6.43;;;;;;;0.10;85.43;101039.16;4990600;28;20287;-77
2022/01/21 02:25:20;;;;;;;7.47;5.80;;;;;;;0.07;85.90;101052.06;4987542;28;20240;-77
2022/01/21 02:27:50;;;;;;;6.65;5.75;;;;;;;0.07;85.81;101045.19;4990557;28;20211;-77
2022/01/21 02:30:18;;;;;;;7.00;6.28;;;;;;;0.09;86.01;101047.78;4979462;28;20310;-77
2022/01/21 02:32:58;;;;;;;9.10;8.05;;;;;;;0.25;86.15;101040.94;4967861;28;20494;-77
2022/01/21 02:35:25;;;;;;;8.55;7.18;;;;;;;0.25;85.72;101033.19;4980961;28;21247;-77
2022/01/21 02:37:51;;;;;;;7.35;6.65;;;;;;;0.21;85.78;101038.31;4960111;28;20288;-78
2022/01/21 02:40:17;;;;;;;10.23;6.93;;;;;;;0.16;85.67;101037.47;4976507;28;20204;-77
2022/01/21 02:42:43;;;;;;;9.45;6.85;;;;;;;0.12;85.87;101030.56;4960991;28;20240;-77
2022/01/21 02:45:11;;;;;;;8.90;7.45;;;;;;;0.10;85.82;101036.56;4950374;28;20875;-77
2022/01/21 02:47:36;;;;;;;8.55;6.65;;;;;;;0.09;85.78;101035.72;4976886;28;20220;-77
2022/01/21 02:50:04;;;;;;;10.90;7.77;;;;;;;0.07;85.84;101024.53;4954070;28;20279;-77
2022/01/21 02:52:39;;;;;;;9.65;7.00;;;;;;;0.04;85.67;101021.06;4949904;28;20452;-77
2022/01/21 02:55:06;;;;;;;8.13;5.97;;;;;;;-0.04;85.69;101019.31;4990997;28;20216;-77
2022/01/21 02:57:31;;;;;;;8.05;7.25;;;;;;;-0.09;85.89;101015.88;4947746;28;20224;-77
2022/01/21 02:59:57;;;;;;;8.00;6.53;;;;;;;-0.10;86.04;101018.47;4977262;28;20204;-77
2022/01/21 03:02:22;;;;;;;7.97;6.27;;;;;;;-0.10;86.14;101018.47;4977306;28;20207;-77
2022/01/21 03:05:10;;;;;;;6.50;5.60;;;;;;;-0.08;85.88;101024.47;4958221;28;20252;-77
2022/01/21 03:07:33;;;;;;;6.82;6.22;;;;;;;-0.07;85.93;101019.31;4962033;28;20219;-77
2022/01/21 03:09:59;;;;;;;6.60;5.90;;;;;;;-0.03;85.93;101020.19;4950777;28;20223;-77
2022/01/21 03:12:24;;;;;;;11.27;6.77;;;;;;;-0.03;85.61;101023.66;4949488;28;20200;-77
2022/01/21 03:14:50;;;;;;;10.10;5.97;;;;;;;-0.04;85.90;101018.47;4976584;28;20243;-76
2022/01/21 03:17:16;;;;;;;7.60;6.47;;;;;;;-0.06;85.80;101023.63;4976800;28;20275;-77
2022/01/21 03:19:41;;;;;;;6.83;6.10;;;;;;;-0.08;86.00;101029.63;4949650;28;20238;-77
2022/01/21 03:22:07;;;;;;;7.43;6.00;;;;;;;-0.12;85.75;101036.53;4976398;28;21614;-76
2022/01/21 03:24:32;;;;;;;7.70;6.00;;;;;;;-0.13;85.87;101041.69;4976137;28;20283;-77
2022/01/21 03:26:57;;;;;;;7.60;6.00;;;;;;;-0.14;86.00;101032.22;4971915;28;20216;-77
2022/01/21 03:29:23;;;;;;;9.77;6.90;;;;;;;-0.16;86.02;101032.22;4954949;28;20218;-77
2022/01/21 03:31:48;;;;;;;5.80;5.30;;;;;;;-0.16;85.96;101037.38;4974853;28;20207;-77
2022/01/21 03:34:14;;;;;;;8.13;5.83;;;;;;;-0.14;86.27;101039.97;4954186;28;20228;-77
2022/01/21 03:36:40;;;;;;;8.25;6.18;;;;;;;-0.14;86.08;101050.28;4964581;28;20743;-77
2022/01/21 03:39:07;;;;;;;11.90;7.10;;;;;;;-0.16;86.08;101050.31;4958021;28;20200;-77
2022/01/21 03:41:33;;;;;;;8.02;6.53;;;;;;;-0.18;85.85;101045.97;4959221;28;20255;-77
2022/01/21 03:43:59;;;;;;;5.80;5.27;;;;;;;-0.23;86.14;101049.41;4975260;28;20283;-77
2022/01/21 03:46:25;;;;;;;6.75;5.55;;;;;;;-0.23;86.16;101048.53;4947172;28;20319;-78
2022/01/21 03:48:51;;;;;;;10.50;7.10;;;;;;;-0.24;86.29;101039.09;4957998;28;20287;-78
2022/01/21 03:51:19;;;;;;;10.73;6.78;;;;;;;-0.25;86.11;101048.53;4963016;28;20267;-77
2022/01/21 03:53:46;;;;;;;12.25;7.35;;;;;;;-0.24;86.20;101039.94;4974530;28;20212;-78
2022/01/21 03:56:13;;;;;;;9.32;6.60;;;;;;;-0.21;86.51;101051.16;4970311;28;20319;-78
2022/01/21 03:58:39;;;;;;;7.63;6.90;;;;;;;-0.24;86.39;101052.84;4969872;28;20196;-78
2022/01/21 04:01:05;;;;;;;9.15;7.38;;;;;;;-0.26;86.21;101043.38;4946622;28;20486;-78
2022/01/21 04:03:31;;;;;;;8.23;6.30;;;;;;;-0.31;86.53;101045.94;4944027;28;20299;-77
2022/01/21 04:05:57;;;;;;;8.00;6.23;;;;;;;-0.34;86.46;101051.09;4940475;28;20475;-78
2022/01/21 04:08:23;;;;;;;6.47;5.32;;;;;;;-0.36;86.35;101051.94;4941909;28;20475;-78
2022/01/21 04:11:00;;;;;;;7.07;5.45;;;;;;;-0.36;86.58;101057.09;4945476;28;20294;-78
2022/01/21 04:13:27;;;;;;;8.60;5.80;;;;;;;-0.36;86.83;101055.38;4944728;28;20239;-78
2022/01/21 04:15:58;;;;;;;7.03;6.32;;;;;;;-0.39;86.55;101052.78;4985393;28;20467;-78
2022/01/21 04:18:23;;;;;;;8.20;5.90;;;;;;;-0.38;86.40;101059.66;4943354;28;20205;-78
2022/01/21 04:20:57;;;;;;;9.27;6.30;;;;;;;-0.36;86.51;101057.09;4959106;28;20311;-78
2022/01/21 04:23:23;;;;;;;8.50;6.13;;;;;;;-0.35;86.67;101051.06;4985233;28;20236;-78
2022/01/21 04:25:51;;;;;;;6.70;5.90;;;;;;;-0.34;86.40;101056.25;4967960;28;20240;-78
2022/01/21 04:28:18;;;;;;;8.65;6.15;;;;;;;-0.35;86.31;101058.81;4950892;28;20200;-78
2022/01/21 04:30:45;;;;;;;8.55;5.95;;;;;;;-0.37;86.26;101057.97;4987156;28;21398;-78
2022/01/21 04:33:11;;;;;;;6.30;5.47;;;;;;;-0.39;86.39;101051.91;4950577;28;20215;-78
2022/01/21 04:35:37;;;;;;;8.02;6.95;;;;;;;-0.43;86.17;101056.22;4967433;28;20295;-78
2022/01/21 04:38:07;;;;;;;9.02;6.80;;;;;;;-0.45;85.88;101063.09;4947931;28;20200;-78
2022/01/21 04:40:39;;;;;;;11.38;6.20;;;;;;;-0.47;86.25;101065.66;4971362;28;20201;-78
2022/01/21 04:48:36;;;;;;;6.20;5.60;;;;;;;-0.52;86.37;101067.34;4968192;28;20232;-78
2022/01/21 04:51:16;;;;;;;7.43;5.82;;;;;;;-0.55;86.20;101057.00;4949798;28;20208;-78
2022/01/21 04:53:44;;;;;;;10.80;6.70;;;;;;;-0.58;86.23;101057.00;4947351;28;20216;-78
2022/01/21 04:56:28;;;;;;;9.63;6.70;;;;;;;-0.61;86.21;101061.28;4961842;28;20196;-79
2022/01/21 04:58:56;;;;;;;20.65;7.93;;;;;;;-0.67;86.22;101062.97;4972339;28;20196;-78
2022/01/21 05:01:21;;;;;;;7.70;5.88;;;;;;;-0.71;86.13;101066.38;4971997;28;20251;-78
2022/01/21 05:03:49;;;;;;;7.40;6.05;;;;;;;-0.74;86.55;101066.34;4956447;28;20204;-78
2022/01/21 05:06:14;;;;;;;8.70;7.80;;;;;;;-0.80;86.49;101070.63;4994529;28;20256;-78
2022/01/21 05:09:15;;;;;;;7.50;6.33;;;;;;;-0.86;86.80;101078.31;4979752;28;20208;-78
2022/01/21 05:11:36;;;;;;;7.22;6.50;;;;;;;-0.88;86.67;101083.47;4961448;28;20223;-78
2022/01/21 05:14:22;;;;;;;7.82;6.55;;;;;;;-0.86;86.47;101075.72;4953717;28;20223;-78
2022/01/21 05:17:03;;;;;;;8.00;5.72;;;;;;;-0.87;87.00;101085.19;4962595;28;20202;-78
2022/01/21 05:19:29;;;;;;;11.80;7.30;;;;;;;-0.85;86.59;101090.38;4951948;28;20210;-78
2022/01/21 05:22:08;;;;;;;11.32;6.72;;;;;;;-0.84;86.68;101090.38;4954555;28;20275;-79
2022/01/21 05:24:38;;;;;;;6.07;5.45;;;;;;;-0.86;86.78;101089.50;4950041;28;20708;-78
2022/01/21 05:27:06;;;;;;;7.90;6.45;;;;;;;-0.89;86.59;101092.06;4947303;28;20257;-79
2022/01/21 05:29:36;;;;;;;8.48;7.00;;;;;;;-0.94;86.95;101093.75;4961001;28;20631;-79
2022/01/21 05:32:13;;;;;;;9.38;7.53;;;;;;;-0.96;86.82;101092.88;4989215;28;20207;-77
2022/01/21 05:34:54;;;;;;;10.55;6.55;;;;;;;-0.98;86.91;101090.28;4970251;28;20216;-78
2022/01/21 05:37:40;;;;;;;6.85;5.80;;;;;;;-1.02;87.12;101095.41;4932741;28;20227;-78
2022/01/21 05:40:24;;;;;;;12.52;6.45;;;;;;;-1.02;87.34;101101.44;4972748;28;20207;-78
2022/01/21 05:43:08;;;;;;;6.45;5.35;;;;;;;-1.00;87.13;101099.75;4971540;28;20304;-78
2022/01/21 05:48:54;;;;;;;11.15;6.75;;;;;;;-0.95;86.93;101102.31;4973700;28;20211;-78
2022/01/21 05:51:38;;;;;;;15.60;9.57;;;;;;;-0.95;87.06;101098.03;4970380;28;20208;-78
2022/01/21 05:54:10;;;;;;;17.38;12.27;;;;;;;-0.96;87.10;101110.94;4972538;28;20215;-77
2022/01/21 05:56:52;;;;;;;7.47;6.70;;;;;;;-0.98;87.03;101117.78;4956203;28;20201;-78
2022/01/21 05:59:27;;;;;;;10.32;6.10;;;;;;;-1.00;86.97;101119.47;4968160;28;20232;-78
2022/01/21 06:01:54;;;;;;;9.82;8.73;;;;;;;-0.94;87.19;101116.97;4968883;28;20533;-78
2022/01/21 06:04:20;;;;;;;11.55;7.40;;;;;;;-0.92;87.50;101120.41;4971902;28;20224;-78
2022/01/21 06:06:45;;;;;;;8.67;6.40;;;;;;;-0.94;87.42;101114.38;4950795;28;20514;-78
2022/01/21 06:09:11;;;;;;;9.83;6.03;;;;;;;-0.93;87.13;101126.41;4973390;28;20227;-78
2022/01/21 06:11:36;;;;;;;25.00;22.27;;;;;;;-0.94;87.40;101125.56;4974571;28;20668;-78
2022/01/21 06:14:03;;;;;;;10.97;9.87;;;;;;;-0.93;87.28;101122.13;4982302;28;20210;-77
2022/01/21 06:16:28;;;;;;;13.77;9.73;;;;;;;-0.92;87.17;101123.88;4984505;28;20272;-78
2022/01/21 06:18:54;;;;;;;10.70;8.23;;;;;;;-0.89;87.08;101133.34;4982622;28;20192;-78
2022/01/21 06:21:20;;;;;;;12.80;8.43;;;;;;;-0.89;87.00;101133.34;4977327;28;20600;-79
2022/01/21 06:23:45;;;;;;;9.15;8.23;;;;;;;-0.86;86.94;101145.38;4972649;28;20204;-78
2022/01/21 06:26:11;;;;;;;9.23;6.57;;;;;;;-0.84;86.84;101138.53;4974418;28;20244;-78
2022/01/21 06:28:37;;;;;;;9.55;7.07;;;;;;;-0.79;86.98;101144.59;4975190;28;20208;-78
2022/01/21 06:31:02;;;;;;;9.00;6.87;;;;;;;-0.75;86.75;101148.94;4971884;28;20208;-77
2022/01/21 06:33:27;;;;;;;10.13;7.47;;;;;;;-0.71;86.73;101153.25;4972965;28;20204;-77
2022/01/21 06:35:53;;;;;;;6.77;5.00;;;;;;;-0.67;86.68;101158.44;4971684;28;20228;-77
2022/01/21 06:38:20;;;;;;;7.23;5.37;;;;;;;-0.62;86.91;101152.44;4950433;28;20215;-77
2022/01/21 06:40:47;;;;;;;7.60;4.85;;;;;;;-0.60;86.62;101159.34;4972041;28;20215;-77
2022/01/21 06:43:13;;;;;;;7.70;4.32;;;;;;;-0.56;86.75;101171.44;4970716;28;20216;-77
2022/01/21 06:45:39;;;;;;;7.85;5.65;;;;;;;-0.53;86.47;101179.19;4969450;28;20228;-77
2022/01/21 06:48:05;;;;;;;13.27;6.50;;;;;;;-0.51;86.44;101179.22;4969975;28;20215;-77
2022/01/21 06:50:33;;;;;;;9.10;5.73;;;;;;;-0.48;86.53;101181.81;4967132;28;20467;-77
2022/01/21 06:52:58;;;;;;;5.90;5.10;;;;;;;-0.45;86.48;101187.84;4966359;28;20243;-77
2022/01/21 06:55:24;;;;;;;6.20;5.50;;;;;;;-0.42;86.14;101188.72;4967898;28;20243;-77
2022/01/21 06:57:50;;;;;;;11.37;5.33;;;;;;;-0.45;86.26;101187.00;4965706;28;20212;-77
2022/01/21 07:00:19;;;;;;;9.20;5.23;;;;;;;-0.45;86.47;101187.00;4966193;28;20465;-77
2022/01/21 07:02:46;;;;;;;6.85;5.18;;;;;;;-0.46;86.35;101185.25;4964887;28;20656;-77
2022/01/21 07:05:12;;;;;;;8.75;4.20;;;;;;;-0.43;86.22;101198.19;4967765;28;20228;-77
2022/01/21 07:07:37;;;;;;;7.47;4.60;;;;;;;-0.43;86.35;101187.88;4968675;28;20302;-77
2022/01/21 07:10:06;;;;;;;11.70;4.60;;;;;;;-0.40;86.74;101190.47;4964541;28;20235;-77
2022/01/21 07:12:33;;;;;;;7.95;5.53;;;;;;;-0.37;86.35;101180.16;4966121;28;20220;-77
2022/01/21 07:14:58;;;;;;;8.15;6.38;;;;;;;-0.35;86.22;101186.19;4966727;28;20220;-77
2022/01/21 07:17:23;;;;;;;7.50;5.13;;;;;;;-0.32;86.29;101196.53;4969808;28;20632;-77
2022/01/21 07:19:49;;;;;;;10.70;6.00;;;;;;;-0.30;86.33;101202.59;4968076;28;20204;-77
2022/01/21 07:22:14;;;;;;;11.33;7.40;;;;;;;-0.26;86.14;101211.22;4968482;28;20303;-77
2022/01/21 07:24:40;;;;;;;10.00;5.70;;;;;;;-0.25;86.02;101211.19;4965694;28;20227;-80
2022/01/21 07:27:06;;;;;;;11.70;6.43;;;;;;;-0.28;86.08;101205.16;4967736;28;20212;-79
2022/01/21 07:29:32;;;;;;;14.23;7.00;;;;;;;-0.31;86.17;101206.00;4964445;28;20882;-79
2022/01/21 07:31:57;;;;;;;7.00;5.25;;;;;;;-0.33;86.33;101215.44;4968149;28;20208;-79
2022/01/21 07:34:24;;;;;;;7.77;5.47;;;;;;;-0.38;86.13;101214.56;4967749;28;20231;-79
2022/01/21 07:36:51;;;;;;;7.72;6.38;;;;;;;-0.45;85.93;101221.41;4967120;28;20237;-79
2022/01/21 07:39:16;;;;;;;9.55;6.57;;;;;;;-0.52;86.18;101223.91;4966169;28;20216;-79
2022/01/21 07:41:42;;;;;;;8.07;5.10;;;;;;;-0.59;86.36;101225.59;4941945;28;20271;-79
2022/01/21 07:44:07;;;;;;;8.03;4.50;;;;;;;-0.63;86.61;101228.13;4966464;28;20204;-79
2022/01/21 07:46:32;;;;;;;5.33;4.27;;;;;;;-0.67;86.67;101233.28;4966399;28;20216;-79
2022/01/21 07:48:59;;;;;;;6.50;4.90;;;;;;;-0.68;86.73;101241.00;4967169;28;20826;-79
2022/01/21 07:51:25;;;;;;;5.20;4.03;;;;;;;-0.69;86.83;101234.13;4965890;28;20271;-79
2022/01/21 07:53:51;;;;;;;5.85;4.95;;;;;;;-0.69;86.86;101231.53;4965943;28;20255;-79
2022/01/21 07:56:16;;;;;;;5.40;4.90;;;;;;;-0.68;86.68;101233.25;4966780;28;20224;-79
2022/01/21 07:58:42;;;;;;;6.70;4.10;;;;;;;-0.68;86.67;101230.66;4966057;28;20726;-79
2022/01/21 08:01:07;;;;;;;11.80;6.53;;;;;;;-0.65;86.78;101227.25;4967197;28;20212;-79
2022/01/21 08:03:33;;;;;;;13.80;6.40;;;;;;;-0.62;86.90;101219.53;4964115;28;20208;-78
2022/01/21 08:05:58;;;;;;;9.97;6.20;;;;;;;-0.60;86.95;101223.00;4967810;28;20245;-79
2022/01/21 08:08:24;;;;;;;10.57;5.30;;;;;;;-0.58;86.86;101222.16;4970307;28;20661;-80
2022/01/21 08:10:50;;;;;;;5.23;4.73;;;;;;;-0.55;86.68;101226.47;4968135;28;20196;-80
2022/01/21 08:13:15;;;;;;;8.13;4.60;;;;;;;-0.49;86.77;101226.53;4975513;28;20613;-80
2022/01/21 08:15:41;;;;;;;11.00;5.17;;;;;;;-0.42;86.81;101235.19;4980493;28;20220;-80
2022/01/21 08:18:06;;;;;;;12.23;6.77;;;;;;;-0.33;86.70;101232.66;4979397;28;20223;-80
2022/01/21 08:20:32;;;;;;;7.93;6.20;;;;;;;-0.24;86.47;101231.03;4979736;28;20195;-81
2022/01/21 08:22:57;;;;;;;10.10;5.60;;;;;;;-0.14;86.29;101223.31;4978686;28;20223;-80
2022/01/21 08:25:23;;;;;;;10.87;6.07;;;;;;;-0.06;86.20;101229.41;4972729;28;20236;-81
2022/01/21 08:27:48;;;;;;;7.13;5.70;;;;;;;0.03;85.87;101216.56;4959236;28;20296;-81
2022/01/21 08:30:14;;;;;;;13.73;7.13;;;;;;;0.14;85.78;101212.28;4960801;28;21132;-81
2022/01/21 08:32:40;;;;;;;7.35;5.57;;;;;;;0.30;85.35;101210.66;4961809;28;20215;-79
2022/01/21 08:35:07;;;;;;;7.30;5.93;;;;;;;0.44;85.19;101210.69;4955474;28;20236;-79
2022/01/21 08:37:33;;;;;;;7.93;6.72;;;;;;;0.54;84.93;101209.88;4956371;28;20550;-79
2022/01/21 08:39:58;;;;;;;7.30;5.60;;;;;;;0.62;84.84;101205.59;4956967;28;20978;-81
2022/01/21 08:42:23;;;;;;;8.30;5.67;;;;;;;0.68;84.35;101202.16;4957902;28;20811;-81
2022/01/21 08:44:49;;;;;;;9.93;5.50;;;;;;;0.71;83.95;101212.50;4955971;28;20829;-81
2022/01/21 08:47:15;;;;;;;6.47;5.87;;;;;;;0.76;84.42;101204.75;4959235;28;20275;-81
2022/01/21 08:49:43;;;;;;;8.25;5.57;;;;;;;0.83;84.38;101215.09;4959451;28;20681;-81
2022/01/21 08:52:18;;;;;;;11.68;6.78;;;;;;;0.92;84.23;101216.88;4964062;28;20229;-81
2022/01/21 08:54:43;;;;;;;9.15;4.57;;;;;;;1.03;83.88;101219.47;4965227;28;20259;-81
2022/01/21 08:57:09;;;;;;;10.43;5.80;;;;;;;1.07;83.92;101211.69;4969661;28;20205;-81
2022/01/21 08:59:34;;;;;;;10.10;5.43;;;;;;;1.14;83.59;101219.47;4964626;28;20258;-81
2022/01/21 09:02:00;;;;;;;9.27;4.60;;;;;;;1.20;83.59;101228.09;4967961;28;20224;-81
2022/01/21 09:04:25;;;;;;;11.50;5.30;;;;;;;1.91;83.13;101236.69;4964421;28;20332;-81
2022/01/21 09:06:51;;;;;;;7.70;5.20;;;;;;;3.10;80.32;101227.50;4960890;28;20235;-80
2022/01/21 09:09:16;;;;;;;8.50;5.53;;;;;;;4.03;77.18;101224.97;4966602;28;20282;-80
2022/01/21 09:11:41;;;;;;;7.90;4.30;;;;;;;4.79;74.83;101217.09;4962132;28;20213;-80
2022/01/21 09:14:08;;;;;;;8.50;5.70;;;;;;;5.68;72.59;101219.16;4970056;28;20228;-81
2022/01/21 09:16:33;;;;;;;5.50;4.70;;;;;;;6.78;68.74;101215.28;4978835;28;20206;-81
2022/01/21 09:19:02;;;;;;;9.37;4.90;;;;;;;7.80;66.33;101221.50;4971484;28;20240;-80
2022/01/21 09:21:29;;;;;;;9.10;5.72;;;;;;;8.75;62.54;101216.25;4966171;28;20687;-81
2022/01/21 09:23:55;;;;;;;7.07;4.18;;;;;;;9.47;59.64;101212.19;4968560;28;20208;-80
2022/01/21 09:26:23;;;;;;;6.00;4.10;;;;;;;10.24;57.26;101212.16;4986572;28;20258;-80
2022/01/21 09:28:49;;;;;;;6.63;4.90;;;;;;;10.71;54.17;101212.16;4986088;28;20565;-81
2022/01/21 09:31:16;;;;;;;11.35;4.38;;;;;;;11.22;52.85;101207.53;4986212;28;20272;-81
2022/01/21 09:33:42;;;;;;;6.22;4.50;;;;;;;11.78;50.82;101198.19;4989134;28;20242;-81
2022/01/21 09:36:11;;;;;;;6.27;4.50;;;;;;;12.16;49.48;101194.75;4990216;28;20223;-81
2022/01/21 09:38:37;;;;;;;5.63;3.53;;;;;;;12.27;48.28;101193.41;4989920;28;21264;-81
2022/01/21 09:41:04;;;;;;;10.45;4.60;;;;;;;11.96;47.94;101192.13;4988545;28;20220;-81
2022/01/21 09:43:33;;;;;;;10.98;4.90;;;;;;;11.17;49.72;101202.44;4987927;28;20611;-81
2022/01/21 09:45:59;;;;;;;6.35;5.63;;;;;;;10.47;51.25;101210.47;4987083;28;20270;-81
2022/01/21 09:48:29;;;;;;;5.88;4.55;;;;;;;9.65;52.69;101221.22;4989364;28;20231;-81
2022/01/21 09:50:57;;;;;;;8.23;5.18;;;;;;;8.77;53.86;101227.53;4989567;28;20274;-81
2022/01/21 09:53:35;;;;;;;6.68;5.20;;;;;;;7.76;55.71;101233.81;4995211;28;20344;-81
2022/01/21 09:56:04;;;;;;;9.10;4.40;;;;;;;7.09;57.01;101237.19;4985157;28;20250;-81
2022/01/21 09:58:30;;;;;;;5.25;3.63;;;;;;;6.64;57.77;101233.84;4986662;28;20234;-81
2022/01/21 10:00:57;;;;;;;10.45;4.53;;;;;;;6.47;58.38;101239.41;4986843;28;20200;-82
2022/01/21 10:03:24;;;;;;;13.88;5.30;;;;;;;6.15;58.41;101247.88;4991250;28;20206;-81
2022/01/21 10:05:51;;;;;;;13.85;4.82;;;;;;;5.93;58.61;101255.22;4986678;28;20220;-81
2022/01/21 10:08:19;;;;;;;5.90;4.95;;;;;;;6.07;58.68;101257.59;4987980;28;20208;-81
2022/01/21 10:10:45;;;;;;;4.20;3.80;;;;;;;6.41;57.97;101248.25;4985161;28;20215;-81
2022/01/21 10:13:15;;;;;;;6.30;3.93;;;;;;;6.61;57.11;101241.75;4988752;28;20216;-81
2022/01/21 10:15:41;;;;;;;6.68;3.80;;;;;;;6.47;56.91;101241.19;4989742;28;20222;-82
2022/01/21 10:18:15;;;;;;;9.73;3.93;;;;;;;6.30;57.98;101237.16;4990646;28;20753;-82
2022/01/21 10:21:08;;;;;;;7.97;3.30;;;;;;;6.01;57.80;101244.69;4984375;28;20547;-81
2022/01/21 10:23:36;;;;;;;6.05;3.50;;;;;;;5.68;59.09;101254.78;4990006;28;20211;-81
2022/01/21 10:26:12;;;;;;;5.40;3.55;;;;;;;5.43;59.35;101254.34;4982740;28;20601;-81
2022/01/21 10:28:39;;;;;;;8.30;3.13;;;;;;;5.14;60.06;101252.19;4982480;28;20196;-81
2022/01/21 10:31:07;;;;;;;12.85;4.45;;;;;;;4.87;60.64;101254.31;4989005;28;20210;-81
2022/01/21 10:33:44;;;;;;;7.97;3.47;;;;;;;4.63;61.83;101256.34;4984019;28;20723;-81
2022/01/21 10:36:21;;;;;;;6.28;3.50;;;;;;;4.54;62.38;101256.47;4989433;28;20624;-80
2022/01/21 10:38:49;;;;;;;6.50;4.32;;;;;;;4.41;62.85;101260.09;4985855;28;20207;-81
2022/01/21 10:41:18;;;;;;;11.18;4.28;;;;;;;4.26;63.33;101265.47;4993917;28;20258;-81
2022/01/21 10:43:44;;;;;;;8.77;3.05;;;;;;;4.13;64.22;101260.41;4987447;28;20220;-81
2022/01/21 10:46:16;;;;;;;6.43;4.65;;;;;;;3.99;64.56;101263.13;4993821;28;20684;-80
2022/01/21 10:48:59;;;;;;;9.23;4.47;;;;;;;3.71;65.07;101262.53;4989370;28;20218;-81
2022/01/21 10:51:28;;;;;;;5.80;3.05;;;;;;;3.50;65.63;101257.50;4974809;28;20258;-81
2022/01/21 10:53:58;;;;;;;6.70;4.50;;;;;;;3.29;66.22;101253.34;4985835;28;20222;-81
2022/01/21 10:56:25;;;;;;;8.13;3.92;;;;;;;3.26;66.61;101255.97;4990742;28;20732;-82
2022/01/21 10:58:53;;;;;;;7.68;4.05;;;;;;;3.14;66.63;101259.53;4993419;28;20204;-81
2022/01/21 11:01:22;;;;;;;9.88;4.25;;;;;;;3.08;66.72;101260.41;4990106;28;20287;-81
2022/01/21 11:04:01;;;;;;;4.45;3.60;;;;;;;3.12;67.38;101245.69;4983795;28;20211;-81
2022/01/21 11:06:37;;;;;;;14.23;5.60;;;;;;;3.22;67.34;101247.34;4986601;28;20212;-80
2022/01/21 11:09:15;;;;;;;9.43;4.20;;;;;;;3.33;68.04;101248.13;4985390;28;20207;-81
2022/01/21 11:11:42;;;;;;;11.80;5.32;;;;;;;3.41;68.09;101247.22;4987317;28;20302;-81
2022/01/21 11:14:14;;;;;;;13.40;5.15;;;;;;;3.44;67.81;101239.38;4980037;28;20208;-81
2022/01/21 11:16:43;;;;;;;7.75;4.25;;;;;;;3.42;68.02;101241.13;4994036;28;20536;-80
2022/01/21 11:19:11;;;;;;;4.32;3.35;;;;;;;3.40;67.75;101245.47;4979010;28;20307;-81
2022/01/21 11:21:49;;;;;;;11.15;4.18;;;;;;;3.41;67.71;101236.81;4981737;28;20579;-81
2022/01/21 11:24:17;;;;;;;7.45;4.20;;;;;;;3.44;68.01;101229.84;4976086;28;20681;-81
2022/01/21 11:26:42;;;;;;;8.30;3.97;;;;;;;3.47;67.52;101219.44;4983008;28;20286;-81
2022/01/21 11:29:09;;;;;;;9.20;4.83;;;;;;;3.49;66.88;101222.03;4994458;28;20232;-81
2022/01/21 11:31:35;;;;;;;5.68;4.97;;;;;;;3.41;66.00;101216.03;4993572;28;20200;-80
2022/01/21 11:34:01;;;;;;;7.97;3.07;;;;;;;3.43;65.72;101206.47;4993021;28;20743;-81
2022/01/21 11:36:26;;;;;;;5.50;3.58;;;;;;;3.51;65.98;101202.06;4991987;28;20200;-81
2022/01/21 11:38:55;;;;;;;7.80;3.40;;;;;;;3.63;65.41;101207.16;4977405;28;20220;-81
2022/01/21 11:41:24;;;;;;;5.20;3.20;;;;;;;3.73;65.45;101205.34;4984181;28;20208;-81
2022/01/21 11:43:52;;;;;;;3.80;3.20;;;;;;;3.84;64.37;101208.72;4987599;28;20660;-81
2022/01/21 11:49:19;;;;;;;5.25;3.17;;;;;;;3.99;63.66;101212.88;4962214;28;20222;-82
2022/01/21 11:51:45;;;;;;;7.03;2.78;;;;;;;4.05;63.93;101210.22;4985422;28;20212;-81
2022/01/21 11:54:16;;;;;;;4.23;2.60;;;;;;;4.13;63.74;101207.50;4981422;28;20204;-81
2022/01/21 11:56:54;;;;;;;8.73;2.80;;;;;;;4.20;63.60;101209.16;4977050;28;20204;-81
2022/01/21 11:59:58;;;;;;;8.13;2.88;;;;;;;4.24;63.04;101217.78;4980830;28;20417;-81
2022/01/21 12:02:33;;;;;;;5.25;3.38;;;;;;;4.28;63.34;101222.09;4979340;28;20208;-81
2022/01/21 12:05:09;;;;;;;10.38;3.85;;;;;;;4.33;63.09;101226.34;4985714;28;20234;-81
2022/01/21 12:07:35;;;;;;;5.60;2.83;;;;;;;4.39;63.10;101215.88;4995173;28;20203;-81
2022/01/21 12:10:09;;;;;;;5.93;2.97;;;;;;;4.44;63.02;101213.22;4993827;28;20214;-81
2022/01/21 12:12:59;;;;;;;2.53;2.33;;;;;;;4.43;63.19;101217.56;4983330;28;20211;-81
2022/01/21 12:15:27;;;;;;;4.45;3.25;;;;;;;4.43;63.27;101206.31;4985027;28;20909;-81
2022/01/21 12:21:04;;;;;;;10.38;5.05;;;;;;;4.37;62.82;101188.16;4986220;28;20215;-81
2022/01/21 12:23:42;;;;;;;6.25;2.75;;;;;;;4.32;63.08;101200.34;5000336;28;20709;-81
2022/01/21 12:26:18;;;;;;;12.18;3.85;;;;;;;4.29;63.16;101198.66;5013017;28;20254;-82
2022/01/21 12:28:57;;;;;;;8.15;3.30;;;;;;;4.28;63.45;101206.47;5005081;28;20210;-81